Terminal Aerodrome Forecast
Issued by NWS

Home | Current Version | Previous Version | Text Only | Print | Product List | Glossary Off
Versions: 1 2 3 4 5 6 7 8 9 10 11 12 13 14 15 16 17

000
FTUS43 KMPX 281700
TAFAXN
TAF
KAXN 281720Z 2818/2918 30017G27KT P6SM BKN015 OVC030
     FM290000 30013KT P6SM SCT020 BKN035
     FM290800 32007KT P6SM BKN015 BKN030
     FM291700 30005KT P6SM SCT020 SCT200=

USA.gov is the U.S. government's official web portal to all federal, state and local government web resources and services.